Time;durP1;ratioP1;P1;durP2;ratioP2;P2;SDS_P1;SDS_P2;PMS_P1;PMS_P2;Temp;Humidity;BMP_temperature;BMP_pressure;BME280_temperature;BME280_humidity;BME280_pressure;Samples;Min_cycle;Max_cycle;Signal;HPM_P1;HPM_P2
2021/03/14 00:02:14;;;;;;;39.97;23.95;;;205.00;2252.80;;;;;;5033829;28;20541;-61
2021/03/14 00:04:41;;;;;;;48.20;28.17;;;205.00;2252.80;;;;;;5033825;28;20025;-61
2021/03/14 00:07:07;;;;;;;32.42;21.35;;;205.00;2252.80;;;;;;5033882;28;20033;-61
2021/03/14 00:09:34;;;;;;;40.25;24.73;;;205.00;2252.80;;;;;;5033527;28;20471;-61
2021/03/14 00:12:00;;;;;;;45.40;27.02;;;205.00;2252.80;;;;;;5033668;28;20026;-61
2021/03/14 00:14:26;;;;;;;44.95;27.95;;;205.00;2252.80;;;;;;5033543;28;20021;-61
2021/03/14 00:16:52;;;;;;;33.80;21.88;;;205.00;2252.80;;;;;;5031953;28;20029;-61
2021/03/14 00:19:19;;;;;;;46.30;28.95;;;205.00;2252.80;;;;;;5033201;28;20022;-61
2021/03/14 00:21:45;;;;;;;35.83;22.88;;;205.00;2252.80;;;;;;5032984;28;20033;-60
2021/03/14 00:24:11;;;;;;;32.20;20.67;;;204.90;2252.80;;;;;;5033689;28;20029;-61
2021/03/14 00:26:37;;;;;;;28.15;17.70;;;204.90;2252.80;;;;;;5033381;28;20379;-61
2021/03/14 00:29:05;;;;;;;25.52;16.65;;;204.80;2252.80;;;;;;5033344;28;20034;-61
2021/03/14 00:31:31;;;;;;;24.83;15.57;;;204.80;2252.80;;;;;;5033236;28;20037;-62
2021/03/14 00:33:57;;;;;;;25.50;16.40;;;204.80;2252.80;;;;;;5033423;28;20041;-61
2021/03/14 00:36:23;;;;;;;23.65;15.20;;;180.10;2252.80;;;;;;5033513;28;20059;-61
2021/03/14 00:38:49;;;;;;;24.15;15.32;;;180.00;2252.80;;;;;;5033488;28;20107;-61
2021/03/14 00:41:15;;;;;;;25.88;16.30;;;180.00;2252.80;;;;;;5033676;28;20099;-61
2021/03/14 00:43:41;;;;;;;27.33;16.55;;;180.00;2252.80;;;;;;5034016;28;20482;-62
2021/03/14 00:46:06;;;;;;;31.95;18.67;;;180.00;2252.80;;;;;;5033582;28;20053;-61
2021/03/14 00:48:32;;;;;;;29.77;17.70;;;180.00;2252.80;;;;;;5033651;28;20526;-64
2021/03/14 00:50:58;;;;;;;26.50;16.00;;;180.00;2252.80;;;;;;5033467;28;20099;-61
2021/03/14 00:53:24;;;;;;;28.52;17.52;;;180.10;2252.80;;;;;;5035334;28;20368;-61
2021/03/14 00:55:50;;;;;;;28.23;17.65;;;180.10;2252.80;;;;;;5040327;28;20026;-61
2021/03/14 00:58:16;;;;;;;25.70;16.52;;;204.80;2252.80;;;;;;5039923;28;20025;-61
2021/03/14 01:00:41;;;;;;;24.60;15.27;;;204.90;2252.80;;;;;;5031381;28;20088;-61
2021/03/14 01:03:08;;;;;;;24.25;15.13;;;204.90;2252.80;;;;;;5020235;28;20116;-64
2021/03/14 01:05:34;;;;;;;23.15;14.52;;;204.90;2252.80;;;;;;5020215;28;20028;-62
2021/03/14 01:08:00;;;;;;;27.30;15.02;;;204.90;2252.80;;;;;;5020002;28;20034;-62
2021/03/14 01:10:25;;;;;;;25.52;16.10;;;204.90;2252.80;;;;;;5019860;28;20057;-61
2021/03/14 01:12:51;;;;;;;28.65;16.02;;;204.80;2252.80;;;;;;5020213;28;20036;-62
2021/03/14 01:15:17;;;;;;;30.17;16.70;;;204.80;2252.80;;;;;;5020351;28;20033;-62
2021/03/14 01:17:43;;;;;;;26.58;15.07;;;204.90;2252.80;;;;;;5020321;28;20025;-60
2021/03/14 01:20:12;;;;;;;26.50;15.43;;;180.10;2252.80;;;;;;5020055;28;20029;-61
2021/03/14 01:22:38;;;;;;;26.48;15.68;;;180.10;2252.80;;;;;;5020259;28;20037;-60
2021/03/14 01:25:06;;;;;;;25.55;15.55;;;204.80;2252.80;;;;;;5020460;28;20026;-62
2021/03/14 01:27:32;;;;;;;25.33;16.05;;;204.80;2252.80;;;;;;5020206;28;20076;-61
2021/03/14 01:29:57;;;;;;;28.75;15.70;;;204.90;2252.80;;;;;;5020104;28;20054;-61
2021/03/14 01:32:23;;;;;;;24.92;14.70;;;204.90;2252.80;;;;;;5020033;28;20022;-61
2021/03/14 01:34:49;;;;;;;23.30;15.00;;;205.00;2252.80;;;;;;5019877;28;20026;-61
2021/03/14 01:37:17;;;;;;;31.42;17.80;;;205.10;2252.80;;;;;;5019867;28;20475;-61
2021/03/14 01:39:44;;;;;;;27.63;16.25;;;205.10;2252.80;;;;;;5020244;28;20033;-61
2021/03/14 01:42:10;;;;;;;24.45;15.23;;;205.20;2252.80;;;;;;5019974;28;20018;-61
2021/03/14 01:44:37;;;;;;;26.35;16.33;;;205.20;2252.80;;;;;;5020066;28;20062;-61
2021/03/14 01:47:04;;;;;;;25.52;14.98;;;205.30;2252.80;;;;;;5019744;28;20033;-61
2021/03/14 01:49:30;;;;;;;25.55;16.05;;;205.30;2252.80;;;;;;5018751;28;20034;-61
2021/03/14 01:51:56;;;;;;;26.13;15.15;;;205.30;2252.80;;;;;;5019991;28;20025;-61
2021/03/14 01:54:22;;;;;;;27.40;15.70;;;205.30;2252.80;;;;;;5020626;28;20113;-61
2021/03/14 01:56:48;;;;;;;27.25;15.82;;;205.30;2252.80;;;;;;5022325;28;20069;-61
2021/03/14 01:59:15;;;;;;;26.40;15.80;;;205.30;2252.80;;;;;;5029485;28;20025;-60
2021/03/14 02:01:42;;;;;;;29.55;17.00;;;205.30;2252.80;;;;;;5044716;28;20041;-60
2021/03/14 02:04:08;;;;;;;29.75;17.33;;;205.30;2252.80;;;;;;5049608;28;20095;-60
2021/03/14 02:06:34;;;;;;;27.58;16.38;;;205.40;2252.80;;;;;;5042610;28;20426;-60
2021/03/14 02:09:00;;;;;;;29.92;16.13;;;205.40;2252.80;;;;;;5045136;28;20033;-61
2021/03/14 02:11:28;;;;;;;25.08;15.05;;;205.40;2252.80;;;;;;5045684;28;20048;-61
2021/03/14 02:13:57;;;;;;;23.30;13.25;;;205.40;2252.80;;;;;;5041280;28;20022;-61
2021/03/14 02:16:36;;;;;;;18.67;11.80;;;205.50;2227.20;;;;;;5044048;28;20025;-63
2021/03/14 02:19:04;;;;;;;24.02;12.25;;;205.60;2227.20;;;;;;5043636;28;20474;-60
2021/03/14 02:21:34;;;;;;;18.13;10.13;;;205.70;2201.60;;;;;;5045998;28;20025;-61
2021/03/14 02:24:14;;;;;;;57.35;26.70;;;230.40;2150.40;;;;;;5046604;28;20615;-61
2021/03/14 02:26:43;;;;;;;18.05;10.43;;;230.40;2150.40;;;;;;5045931;28;20603;-60
2021/03/14 02:29:11;;;;;;;17.38;9.07;;;230.50;2150.40;;;;;;5041727;28;20445;-60
2021/03/14 02:31:39;;;;;;;19.58;10.18;;;230.60;2124.80;;;;;;5043805;28;20024;-60
2021/03/14 02:34:12;;;;;;;20.00;10.77;;;230.60;2124.80;;;;;;5043103;28;20029;-60
2021/03/14 02:36:41;;;;;;;17.58;10.63;;;230.70;2124.80;;;;;;5044044;28;20040;-60
2021/03/14 02:39:14;;;;;;;22.95;12.93;;;230.70;2124.80;;;;;;5040803;28;20021;-60
2021/03/14 02:41:41;;;;;;;40.30;21.48;;;230.80;2099.20;;;;;;5043394;28;20029;-60
2021/03/14 02:44:10;;;;;;;23.25;13.75;;;230.80;2124.80;;;;;;5041321;28;20025;-60
2021/03/14 02:46:36;;;;;;;33.75;17.40;;;230.70;2124.80;;;;;;5043969;28;20486;-60
2021/03/14 02:49:02;;;;;;;17.73;10.93;;;230.60;2150.40;;;;;;5045033;28;20029;-60
2021/03/14 02:51:28;;;;;;;15.90;9.43;;;230.60;2150.40;;;;;;5043734;28;20030;-61
2021/03/14 02:53:55;;;;;;;15.10;9.52;;;230.50;2150.40;;;;;;5045983;28;20025;-60
2021/03/14 02:56:22;;;;;;;15.13;9.07;;;230.40;2150.40;;;;;;5042988;28;20554;-60
2021/03/14 02:58:52;;;;;;;12.82;8.45;;;230.50;2150.40;;;;;;5043408;28;20085;-60
2021/03/14 03:01:18;;;;;;;14.60;8.30;;;230.50;2176.00;;;;;;5043105;28;20132;-60
2021/03/14 03:03:44;;;;;;;15.18;7.93;;;230.50;2176.00;;;;;;5044882;28;20448;-60
2021/03/14 03:06:14;;;;;;;12.60;8.40;;;230.40;2176.00;;;;;;5043227;28;20045;-60
2021/03/14 03:08:40;;;;;;;12.52;7.75;;;230.50;2176.00;;;;;;5042844;28;20375;-61
2021/03/14 03:11:13;;;;;;;12.70;8.05;;;230.50;2176.00;;;;;;5044800;28;20014;-60
2021/03/14 03:13:40;;;;;;;13.27;8.73;;;230.60;2150.40;;;;;;5043957;28;20033;-61
2021/03/14 03:16:10;;;;;;;13.05;8.32;;;230.60;2150.40;;;;;;5042445;28;20464;-60
2021/03/14 03:18:36;;;;;;;15.20;9.02;;;230.70;2150.40;;;;;;5043106;28;20536;-61
2021/03/14 03:21:03;;;;;;;16.63;8.98;;;230.70;2124.80;;;;;;5044559;28;20070;-60
2021/03/14 03:23:28;;;;;;;15.40;8.65;;;230.80;2124.80;;;;;;5042645;28;20030;-61
2021/03/14 03:25:54;;;;;;;15.23;8.82;;;230.80;2124.80;;;;;;5043258;28;20021;-60
2021/03/14 03:28:20;;;;;;;17.50;8.45;;;230.80;2124.80;;;;;;5043889;28;20033;-61
2021/03/14 03:30:46;;;;;;;13.70;8.07;;;230.90;2099.20;;;;;;5042281;28;20018;-61
2021/03/14 03:33:11;;;;;;;12.93;7.93;;;230.90;2099.20;;;;;;5043850;28;20107;-61
2021/03/14 03:35:37;;;;;;;12.02;7.82;;;230.90;2073.60;;;;;;5043895;28;20370;-60
2021/03/14 03:38:04;;;;;;;16.15;8.15;;;230.90;2073.60;;;;;;5042109;28;20017;-61
2021/03/14 03:40:31;;;;;;;14.07;7.72;;;231.00;2073.60;;;;;;5043935;28;20021;-60
2021/03/14 03:43:10;;;;;;;15.52;8.68;;;231.00;2048.00;;;;;;5043570;28;20551;-61
2021/03/14 03:45:40;;;;;;;15.23;8.40;;;230.90;2048.00;;;;;;5041967;28;20103;-61
2021/03/14 03:48:07;;;;;;;14.23;7.95;;;231.00;2048.00;;;;;;5042066;28;20088;-61
2021/03/14 03:50:36;;;;;;;13.57;7.97;;;231.10;2048.00;;;;;;5043280;28;20529;-61
2021/03/14 03:53:02;;;;;;;14.73;8.55;;;231.00;2022.40;;;;;;5043760;28;20558;-61
2021/03/14 03:55:28;;;;;;;14.07;8.38;;;231.10;2022.40;;;;;;5041967;28;20077;-61
2021/03/14 03:57:55;;;;;;;14.35;8.02;;;231.20;1996.80;;;;;;5042951;28;20031;-60
2021/03/14 04:00:22;;;;;;;14.07;8.52;;;231.10;1996.80;;;;;;5040889;28;20099;-60
2021/03/14 04:02:48;;;;;;;15.15;8.63;;;231.20;1971.20;;;;;;5043919;28;20045;-61
2021/03/14 04:05:15;;;;;;;15.48;8.85;;;231.30;1971.20;;;;;;5042266;28;20013;-61
2021/03/14 04:07:45;;;;;;;15.80;9.52;;;231.30;1971.20;;;;;;5041400;28;20490;-61
2021/03/14 04:10:20;;;;;;;17.42;9.50;;;256.00;1971.20;;;;;;5039600;28;20029;-61
2021/03/14 04:12:47;;;;;;;16.50;9.20;;;256.00;1945.60;;;;;;5041219;28;20479;-61
2021/03/14 04:15:19;;;;;;;14.63;9.38;;;256.00;1945.60;;;;;;5042183;28;20548;-60
2021/03/14 04:17:45;;;;;;;17.95;9.38;;;256.10;1920.00;;;;;;5043443;28;20021;-60
2021/03/14 04:20:18;;;;;;;18.30;9.60;;;256.10;1920.00;;;;;;5041819;28;20018;-61
2021/03/14 04:22:48;;;;;;;17.08;9.77;;;256.10;1920.00;;;;;;5041435;28;20025;-60
2021/03/14 04:25:15;;;;;;;16.73;9.75;;;256.20;1945.60;;;;;;5042374;28;20482;-61
2021/03/14 04:27:45;;;;;;;22.20;14.63;;;256.20;1945.60;;;;;;5042902;28;20049;-61
2021/03/14 04:30:12;;;;;;;42.83;25.75;;;256.30;1945.60;;;;;;5039451;28;20037;-61
2021/03/14 04:32:38;;;;;;;36.80;24.65;;;256.20;1894.40;;;;;;5041967;28;20025;-61
2021/03/14 04:35:06;;;;;;;32.65;22.20;;;256.30;1868.80;;;;;;5042959;28;20021;-60
2021/03/14 04:37:33;;;;;;;39.70;26.52;;;256.20;1920.00;;;;;;5041804;28;20014;-61
2021/03/14 04:40:01;;;;;;;40.22;26.55;;;256.30;1894.40;;;;;;5041648;28;20021;-61
2021/03/14 04:42:28;;;;;;;36.60;25.00;;;256.20;1920.00;;;;;;5043248;28;20021;-61
2021/03/14 04:44:55;;;;;;;39.75;26.05;;;256.20;1920.00;;;;;;5042178;28;20029;-61
2021/03/14 04:47:22;;;;;;;41.22;27.38;;;256.30;1945.60;;;;;;5043744;28;20491;-61
2021/03/14 04:49:47;;;;;;;36.10;25.83;;;256.30;1945.60;;;;;;5040768;28;20072;-61
2021/03/14 04:52:19;;;;;;;40.03;26.88;;;256.30;1996.80;;;;;;5041845;28;20017;-61
2021/03/14 04:54:50;;;;;;;42.83;27.33;;;256.30;1996.80;;;;;;5024908;28;20028;-61
2021/03/14 04:57:17;;;;;;;41.15;27.05;;;256.30;1996.80;;;;;;5041909;28;20044;-61
2021/03/14 04:59:44;;;;;;;39.10;26.02;;;256.30;2022.40;;;;;;5040507;28;20059;-61
2021/03/14 05:02:12;;;;;;;41.38;26.05;;;256.30;2022.40;;;;;;5038697;28;20033;-61
2021/03/14 05:04:39;;;;;;;38.70;25.80;;;256.30;2048.00;;;;;;5041719;28;20024;-61
2021/03/14 05:07:06;;;;;;;35.45;24.60;;;256.30;2022.40;;;;;;5042564;28;20025;-60
2021/03/14 05:09:32;;;;;;;35.47;24.50;;;256.30;2022.40;;;;;;5041285;28;20445;-61
2021/03/14 05:11:59;;;;;;;37.22;25.13;;;256.20;2022.40;;;;;;5041613;28;20028;-61
2021/03/14 05:14:25;;;;;;;42.28;26.55;;;256.20;2022.40;;;;;;5042629;28;20107;-61
2021/03/14 05:16:52;;;;;;;37.85;25.90;;;256.20;2022.40;;;;;;5040897;28;20032;-61
2021/03/14 05:19:18;;;;;;;40.20;26.40;;;256.20;2022.40;;;;;;5041811;28;20056;-60
2021/03/14 05:21:44;;;;;;;41.47;27.33;;;256.20;2022.40;;;;;;5042631;28;20029;-60
2021/03/14 05:24:12;;;;;;;44.13;27.50;;;256.20;2022.40;;;;;;5040725;28;20116;-61
2021/03/14 05:26:41;;;;;;;46.20;28.70;;;256.20;2048.00;;;;;;5043688;28;20018;-64
2021/03/14 05:29:11;;;;;;;41.17;26.75;;;256.20;2073.60;;;;;;5044947;28;20109;-63
2021/03/14 05:31:39;;;;;;;54.15;33.05;;;256.20;2022.40;;;;;;5042906;28;20017;-60
2021/03/14 05:34:16;;;;;;;51.80;31.20;;;256.20;1996.80;;;;;;5043642;28;20032;-60
2021/03/14 05:36:42;;;;;;;37.22;24.70;;;256.20;2022.40;;;;;;5037943;28;20479;-61
2021/03/14 05:39:09;;;;;;;37.08;24.38;;;256.10;1996.80;;;;;;5033601;28;20356;-60
2021/03/14 05:41:36;;;;;;;35.85;21.50;;;256.10;2022.40;;;;;;5037392;28;20029;-61
2021/03/14 05:44:03;;;;;;;25.83;15.80;;;256.20;2022.40;;;;;;5018987;28;20360;-61
2021/03/14 05:46:29;;;;;;;29.85;18.92;;;256.20;1971.20;;;;;;5036866;28;20017;-61
2021/03/14 05:48:55;;;;;;;38.60;28.15;;;256.20;1971.20;;;;;;5036535;28;20030;-61
2021/03/14 05:51:27;;;;;;;33.50;23.67;;;256.20;1971.20;;;;;;5036666;28;20589;-61
2021/03/14 05:53:54;;;;;;;35.25;19.73;;;256.20;1945.60;;;;;;5019057;28;20026;-61
2021/03/14 05:56:21;;;;;;;27.40;16.67;;;256.20;1971.20;;;;;;5036990;28;20374;-61
2021/03/14 05:58:49;;;;;;;28.30;17.13;;;256.20;1945.60;;;;;;5036541;28;20049;-61
2021/03/14 06:01:17;;;;;;;24.15;15.68;;;256.30;1945.60;;;;;;5036481;28;20505;-61
2021/03/14 06:03:44;;;;;;;23.33;13.75;;;256.30;1945.60;;;;;;5036256;28;20352;-60
2021/03/14 06:06:11;;;;;;;21.63;13.27;;;256.40;1920.00;;;;;;5036705;28;20084;-60
2021/03/14 06:08:38;;;;;;;20.08;12.95;;;256.40;1945.60;;;;;;5036239;28;20041;-60
2021/03/14 06:11:05;;;;;;;19.25;12.57;;;256.60;1945.60;;;;;;5036576;28;20048;-61
2021/03/14 06:13:31;;;;;;;26.65;15.27;;;256.80;1920.00;;;;;;5036407;28;20036;-61
2021/03/14 06:15:58;;;;;;;31.70;19.13;;;256.80;1894.40;;;;;;5036426;28;20490;-61
2021/03/14 06:18:25;;;;;;;32.65;16.67;;;256.90;1868.80;;;;;;5036208;28;20041;-61
2021/03/14 06:20:51;;;;;;;32.78;16.95;;;281.60;1894.40;;;;;;5036038;28;20029;-61
2021/03/14 06:23:18;;;;;;;32.97;19.33;;;281.80;1868.80;;;;;;5036203;28;20071;-61
2021/03/14 06:25:46;;;;;;;24.85;15.15;;;282.10;1868.80;;;;;;5036398;28;20029;-60
2021/03/14 06:28:14;;;;;;;20.27;12.43;;;282.30;1817.60;;;;;;5036112;28;20386;-61
2021/03/14 06:30:41;;;;;;;17.92;10.82;;;282.40;1792.00;;;;;;5036198;28;20083;-61
2021/03/14 06:33:14;;;;;;;19.08;12.70;;;282.50;1792.00;;;;;;5036148;28;20048;-61
2021/03/14 06:35:52;;;;;;;17.05;11.27;;;282.50;1792.00;;;;;;5035737;28;20438;-61
2021/03/14 06:38:28;;;;;;;22.05;14.80;;;307.20;1817.60;;;;;;5035542;28;20076;-61
2021/03/14 06:41:02;;;;;;;25.58;15.25;;;307.30;1792.00;;;;;;5035951;28;20036;-61
2021/03/14 06:43:35;;;;;;;15.82;10.50;;;307.40;1792.00;;;;;;5035840;28;20029;-61
2021/03/14 06:46:16;;;;;;;22.42;12.00;;;307.30;1740.80;;;;;;5035986;28;20148;-61
2021/03/14 06:48:42;;;;;;;22.88;14.18;;;307.40;1766.40;;;;;;5036129;28;20029;-61
2021/03/14 06:51:08;;;;;;;19.67;12.80;;;307.50;1740.80;;;;;;5034951;28;20036;-61
2021/03/14 06:53:33;;;;;;;36.50;22.05;;;307.60;1715.20;;;;;;5035664;28;20026;-61
2021/03/14 06:56:06;;;;;;;29.88;20.73;;;307.80;1689.60;;;;;;5035674;28;20120;-60
2021/03/14 06:58:34;;;;;;;33.80;23.67;;;332.90;1664.00;;;;;;5035569;28;20375;-61
2021/03/14 07:01:20;;;;;;;23.42;16.33;;;332.90;1664.00;;;;;;5035360;28;20053;-61
2021/03/14 07:03:54;;;;;;;31.42;17.80;;;333.60;1587.20;;;;;;5035555;28;20040;-61
2021/03/14 07:06:26;;;;;;;26.15;17.67;;;358.70;1510.40;;;;;;5035433;28;20075;-61
2021/03/14 07:08:57;;;;;;;22.60;15.25;;;384.50;1408.00;;;;;;5035362;28;20122;-61
2021/03/14 07:11:48;;;;;;;24.95;17.88;;;435.70;1228.80;;;;;;5035310;28;20041;-59
2021/03/14 07:14:16;;;;;;;23.42;14.45;;;460.80;1152.00;;;;;;5035217;28;20120;-59
2021/03/14 07:16:47;;;;;;;17.25;11.52;;;436.10;1152.00;;;;;;5035040;28;20030;-61
2021/03/14 07:19:27;;;;;;;20.13;12.65;;;435.50;1228.80;;;;;;5035034;28;20022;-63
2021/03/14 07:21:57;;;;;;;17.08;10.90;;;461.40;1152.00;;;;;;5035235;28;20054;-59
2021/03/14 07:24:38;;;;;;;16.92;11.55;;;512.60;972.80;;;;;;5035235;28;20022;-59
2021/03/14 07:27:18;;;;;;;13.45;9.23;;;563.60;870.40;;;;;;5035078;28;20451;-59
2021/03/14 07:29:45;;;;;;;11.15;7.72;;;588.80;844.80;;;;;;5034612;28;20475;-59
2021/03/14 07:32:11;;;;;;;10.45;8.02;;;538.40;921.60;;;;;;5035010;28;20022;-59
2021/03/14 07:34:36;;;;;;;10.30;6.60;;;563.30;921.60;;;;;;5034682;28;20033;-59
2021/03/14 07:37:03;;;;;;;10.80;8.30;;;537.70;947.20;;;;;;5034808;28;20108;-62
2021/03/14 07:39:29;;;;;;;9.48;6.40;;;512.30;998.40;;;;;;5035031;28;20057;-59
2021/03/14 07:41:54;;;;;;;8.88;5.75;;;486.90;1075.20;;;;;;5034826;28;20018;-59
2021/03/14 07:44:22;;;;;;;7.82;5.47;;;461.30;1152.00;;;;;;5034667;28;20026;-59
2021/03/14 07:46:49;;;;;;;10.18;6.90;;;435.80;1228.80;;;;;;5034503;28;20022;-59
2021/03/14 07:49:17;;;;;;;8.07;6.38;;;435.30;1280.00;;;;;;5034254;28;20108;-59
2021/03/14 07:51:46;;;;;;;9.55;6.57;;;410.30;1331.20;;;;;;5034524;28;20463;-59
2021/03/14 07:54:17;;;;;;;10.77;7.20;;;409.60;1382.40;;;;;;5034489;28;20030;-61
2021/03/14 07:56:46;;;;;;;10.13;7.50;;;384.60;1433.60;;;;;;5034567;28;20436;-63
2021/03/14 07:59:12;;;;;;;11.13;7.03;;;384.20;1484.80;;;;;;5034382;28;20026;-61
2021/03/14 08:01:39;;;;;;;12.75;9.35;;;359.30;1510.40;;;;;;5034226;28;20122;-61
2021/03/14 08:04:28;;;;;;;22.75;15.73;;;359.10;1536.00;;;;;;5033327;28;20108;-61
2021/03/14 08:06:54;;;;;;;22.98;17.60;;;358.90;1587.20;;;;;;5034321;28;20542;-61
2021/03/14 08:09:53;;;;;;;18.90;13.80;;;358.90;1587.20;;;;;;5034180;28;20116;-62
2021/03/14 08:12:20;;;;;;;15.85;12.63;;;358.90;1612.80;;;;;;4973462;28;20034;-61
2021/03/14 08:14:48;;;;;;;17.70;11.57;;;358.60;1612.80;;;;;;4973255;28;20039;-59
2021/03/14 08:17:37;;;;;;;18.60;12.52;;;358.70;1638.40;;;;;;4973227;28;20022;-61
2021/03/14 08:20:05;;;;;;;20.40;12.88;;;358.80;1638.40;;;;;;4934668;29;20079;-60
2021/03/14 08:22:39;;;;;;;31.83;20.95;;;359.10;1587.20;;;;;;4934785;29;20122;-60
2021/03/14 08:25:17;;;;;;;30.65;23.08;;;359.30;1612.80;;;;;;4934665;29;20042;-60
2021/03/14 08:27:45;;;;;;;30.38;20.40;;;384.00;1612.80;;;;;;4934244;29;20039;-62
2021/03/14 08:30:32;;;;;;;32.35;21.40;;;384.20;1587.20;;;;;;4934577;29;20449;-63
2021/03/14 08:33:20;;;;;;;26.88;18.00;;;384.40;1536.00;;;;;;4934577;29;20519;-62
2021/03/14 08:35:51;;;;;;;15.63;10.40;;;384.70;1459.20;;;;;;4934657;29;20047;-60
2021/03/14 08:38:31;;;;;;;11.48;7.93;;;461.10;1280.00;;;;;;4934674;29;20048;-60
2021/03/14 08:41:30;;;;;;;11.20;8.45;;;537.90;1024.00;;;;;;4934681;28;20038;-60
2021/03/14 08:44:00;;;;;;;13.43;8.57;;;538.10;1024.00;;;;;;4896340;29;20124;-60
2021/03/14 08:46:51;;;;;;;11.15;6.65;;;512.70;1049.60;;;;;;4896865;29;20080;-59
2021/03/14 08:49:19;;;;;;;8.90;6.78;;;487.30;1075.20;;;;;;4915597;29;20137;-59
2021/03/14 08:51:46;;;;;;;13.77;8.30;;;486.80;1126.40;;;;;;4915295;29;20033;-59
2021/03/14 08:54:12;;;;;;;14.25;9.00;;;486.40;1177.60;;;;;;4915356;29;20049;-59
2021/03/14 08:56:38;;;;;;;13.25;9.20;;;461.20;1228.80;;;;;;4928112;29;20035;-59
2021/03/14 08:59:14;;;;;;;18.45;9.75;;;460.90;1254.40;;;;;;4953720;29;20027;-59
2021/03/14 09:01:42;;;;;;;18.50;10.15;;;435.90;1254.40;;;;;;4953325;29;20522;-60
2021/03/14 09:04:18;;;;;;;36.15;22.48;;;435.50;1280.00;;;;;;4953353;28;20031;-60
2021/03/14 09:06:44;;;;;;;50.55;30.27;;;435.20;1305.60;;;;;;4953438;28;20046;-60
2021/03/14 09:09:12;;;;;;;26.88;17.35;;;435.20;1331.20;;;;;;4953356;29;20039;-59
2021/03/14 09:11:42;;;;;;;28.10;14.93;;;435.40;1331.20;;;;;;4953430;29;20034;-59
2021/03/14 09:14:32;;;;;;;20.65;11.40;;;435.20;1331.20;;;;;;4953719;28;20035;-59
2021/03/14 09:17:00;;;;;;;25.13;14.00;;;435.30;1331.20;;;;;;4957208;29;20024;-60
2021/03/14 09:19:33;;;;;;;15.57;10.30;;;435.40;1305.60;;;;;;4995919;28;20060;-60
2021/03/14 09:22:04;;;;;;;11.88;7.10;;;435.50;1305.60;;;;;;5037358;28;20028;-60
2021/03/14 09:24:35;;;;;;;17.20;11.70;;;435.70;1280.00;;;;;;5037533;28;20029;-60
2021/03/14 09:27:12;;;;;;;27.70;16.75;;;435.80;1280.00;;;;;;5037283;28;20048;-59
2021/03/14 09:29:48;;;;;;;30.15;17.88;;;435.90;1280.00;;;;;;5019139;28;20041;-59
2021/03/14 09:32:42;;;;;;;110.30;58.33;;;436.00;1254.40;;;;;;5037268;28;20025;-60
2021/03/14 09:35:16;;;;;;;25.02;16.02;;;436.10;1203.20;;;;;;5037217;28;20022;-60
2021/03/14 09:37:54;;;;;;;25.65;15.00;;;436.00;1177.60;;;;;;5037204;28;20498;-60
2021/03/14 09:40:20;;;;;;;28.02;18.20;;;436.10;1177.60;;;;;;5037057;28;20022;-60
2021/03/14 09:42:50;;;;;;;19.88;11.52;;;460.90;1177.60;;;;;;5036958;28;20380;-60
2021/03/14 09:45:18;;;;;;;19.98;12.50;;;461.30;1152.00;;;;;;5037169;28;20029;-60
2021/03/14 09:48:03;;;;;;;22.48;14.38;;;461.50;1152.00;;;;;;5036671;28;20044;-60
2021/03/14 09:50:31;;;;;;;13.55;8.63;;;461.40;1126.40;;;;;;5036659;28;20029;-60
2021/03/14 09:53:01;;;;;;;23.25;15.65;;;461.60;1100.80;;;;;;5036595;28;20491;-60
2021/03/14 09:55:30;;;;;;;21.63;12.85;;;486.90;1049.60;;;;;;5036266;28;20109;-60
2021/03/14 09:57:56;;;;;;;14.20;8.45;;;512.30;998.40;;;;;;5037029;28;20526;-60
2021/03/14 10:00:27;;;;;;;15.27;10.75;;;512.30;972.80;;;;;;5036609;28;20045;-59
2021/03/14 10:02:54;;;;;;;15.02;11.73;;;512.40;947.20;;;;;;5036680;28;20107;-59
2021/03/14 10:05:19;;;;;;;9.40;6.20;;;512.50;947.20;;;;;;5036274;28;20048;-59
2021/03/14 10:07:53;;;;;;;25.42;18.42;;;537.80;921.60;;;;;;5036329;28;20029;-59
2021/03/14 10:10:20;;;;;;;37.38;19.08;;;537.90;896.00;;;;;;5018802;28;20030;-60
2021/03/14 10:12:46;;;;;;;34.05;20.20;;;538.40;896.00;;;;;;5036419;28;20490;-60
2021/03/14 10:15:17;;;;;;;21.17;14.02;;;589.70;768.00;;;;;;5036368;28;20418;-60
2021/03/14 10:17:44;;;;;;;7.68;5.10;;;666.30;665.60;;;;;;5035855;28;20026;-59
2021/03/14 10:20:11;;;;;;;8.27;6.18;;;666.20;640.00;;;;;;5036106;28;20030;-60
2021/03/14 10:22:37;;;;;;;7.07;4.30;;;742.50;563.20;;;;;;5036133;28;20083;-60
2021/03/14 10:25:04;;;;;;;7.07;4.18;;;793.90;486.40;;;;;;5036424;28;20022;-60
2021/03/14 10:27:31;;;;;;;6.88;5.22;;;819.60;435.20;;;;;;5035093;28;20030;-61
2021/03/14 10:30:03;;;;;;;7.32;5.25;;;845.40;409.60;;;;;;5035950;28;20033;-64
2021/03/14 10:32:30;;;;;;;8.73;6.10;;;845.30;409.60;;;;;;5035932;28;20036;-61
2021/03/14 10:34:58;;;;;;;8.38;5.38;;;819.40;435.20;;;;;;5035441;28;20391;-62
2021/03/14 10:37:33;;;;;;;7.90;5.60;;;768.00;512.00;;;;;;5035930;28;20025;-61
2021/03/14 10:40:20;;;;;;;10.60;6.47;;;717.70;563.20;;;;;;5035781;28;20025;-60
2021/03/14 10:42:48;;;;;;;15.85;9.15;;;692.10;588.80;;;;;;5035190;28;20092;-61
2021/03/14 10:45:15;;;;;;;15.07;10.52;;;666.30;640.00;;;;;;5035580;28;20473;-60
2021/03/14 10:47:42;;;;;;;16.98;10.77;;;640.50;691.20;;;;;;5035459;28;20043;-61
2021/03/14 10:50:12;;;;;;;9.68;6.47;;;614.70;716.80;;;;;;5035440;28;20021;-61
2021/03/14 10:52:39;;;;;;;11.30;6.40;;;589.50;768.00;;;;;;5035580;28;20040;-60
2021/03/14 10:55:24;;;;;;;8.70;4.70;;;640.30;716.80;;;;;;5035615;28;20104;-60
2021/03/14 10:57:50;;;;;;;7.85;4.88;;;691.60;640.00;;;;;;5035405;28;20489;-60
2021/03/14 11:00:26;;;;;;;7.35;4.70;;;717.00;588.80;;;;;;5040660;28;20050;-61
2021/03/14 11:02:56;;;;;;;10.20;6.18;;;717.70;537.60;;;;;;5055115;28;20025;-63
2021/03/14 11:05:22;;;;;;;6.47;4.93;;;768.80;460.80;;;;;;5055307;28;20025;-62
2021/03/14 11:07:58;;;;;;;9.60;5.63;;;819.80;435.20;;;;;;5055274;28;20040;-61
2021/03/14 11:10:25;;;;;;;8.25;5.10;;;871.00;358.40;;;;;;5055197;28;20100;-62
2021/03/14 11:12:50;;;;;;;6.60;4.18;;;896.00;332.80;;;;;;5054656;28;20087;-61
2021/03/14 11:15:31;;;;;;;11.05;8.85;;;947.70;281.60;;;;;;5055192;28;20021;-61
2021/03/14 11:18:01;;;;;;;10.02;8.82;;;973.00;307.20;;;;;;5054941;28;20039;-61
2021/03/14 11:20:28;;;;;;;10.07;6.68;;;947.50;281.60;;;;;;5044445;28;20467;-61
2021/03/14 11:22:56;;;;;;;11.88;8.20;;;921.70;332.80;;;;;;5034642;28;20475;-60
2021/03/14 11:25:22;;;;;;;9.10;5.65;;;870.60;358.40;;;;;;5035314;28;20383;-60
2021/03/14 11:27:51;;;;;;;13.85;7.10;;;794.30;460.80;;;;;;5035098;28;20029;-62
2021/03/14 11:30:19;;;;;;;52.97;26.58;;;743.00;537.60;;;;;;5035103;28;20048;-60
2021/03/14 11:32:45;;;;;;;25.25;13.27;;;691.90;588.80;;;;;;5035020;28;20024;-60
2021/03/14 11:35:11;;;;;;;64.18;32.05;;;665.90;665.60;;;;;;5034673;28;20025;-60
2021/03/14 11:37:37;;;;;;;38.95;22.90;;;615.30;716.80;;;;;;5034225;28;20031;-60
2021/03/14 11:40:05;;;;;;;54.40;34.42;;;589.30;768.00;;;;;;5017320;28;20096;-60
2021/03/14 11:42:31;;;;;;;27.77;17.42;;;563.80;844.80;;;;;;5034669;28;20025;-61
2021/03/14 11:44:57;;;;;;;33.17;18.30;;;537.80;947.20;;;;;;5034654;28;20104;-60
2021/03/14 11:47:24;;;;;;;32.40;17.63;;;512.30;998.40;;;;;;5034763;28;20037;-60
2021/03/14 11:49:50;;;;;;;31.60;14.80;;;487.30;1075.20;;;;;;5034636;28;20064;-60
2021/03/14 11:52:16;;;;;;;16.65;9.23;;;512.00;1203.20;;;;;;5034554;28;20029;-60
2021/03/14 11:54:42;;;;;;;19.23;11.02;;;487.30;1228.80;;;;;;5034452;28;20048;-60
2021/03/14 11:57:09;;;;;;;24.02;14.57;;;487.20;1228.80;;;;;;5034465;28;20048;-60
2021/03/14 11:59:35;;;;;;;26.88;19.33;;;487.20;1305.60;;;;;;5034628;28;20033;-59
2021/03/14 12:02:02;;;;;;;28.35;16.48;;;487.30;1280.00;;;;;;5034324;28;20057;-59
2021/03/14 12:04:27;;;;;;;40.13;24.02;;;512.10;1305.60;;;;;;5034527;28;20068;-61
2021/03/14 12:06:53;;;;;;;33.70;19.08;;;487.10;1331.20;;;;;;5034480;28;20459;-60
2021/03/14 12:09:19;;;;;;;30.42;15.82;;;486.70;1305.60;;;;;;5034156;28;20364;-60
2021/03/14 12:11:44;;;;;;;32.15;17.73;;;486.60;1305.60;;;;;;5005166;28;20056;-59
2021/03/14 12:14:10;;;;;;;30.95;16.45;;;461.60;1356.80;;;;;;5025790;28;20100;-59